sensor_id;sensor_type;location;lat;lon;timestamp;pressure;altitude;pressure_sealevel;temperature;humidity
14790;BME280;7486;51.010;10.366;2023-05-08T00:02:16;98940.75;;;5.72;81.98
14790;BME280;7486;51.010;10.366;2023-05-08T00:05:01;98926.69;;;5.81;81.48
14790;BME280;7486;51.010;10.366;2023-05-08T00:07:46;98921.84;;;5.68;81.31
14790;BME280;7486;51.010;10.366;2023-05-08T00:10:32;98927.13;;;5.77;81.13
14790;BME280;7486;51.010;10.366;2023-05-08T00:13:17;98928.13;;;5.76;80.81
14790;BME280;7486;51.010;10.366;2023-05-08T00:16:02;98932.75;;;5.82;80.40
14790;BME280;7486;51.010;10.366;2023-05-08T00:18:48;98928.88;;;5.60;80.87
14790;BME280;7486;51.010;10.366;2023-05-08T00:21:33;98877.59;;;4.96;82.02
14790;BME280;7486;51.010;10.366;2023-05-08T00:24:18;98869.44;;;5.07;82.89
14790;BME280;7486;51.010;10.366;2023-05-08T00:27:04;98934.44;;;5.57;81.63
14790;BME280;7486;51.010;10.366;2023-05-08T00:29:49;98932.34;;;5.60;82.27
14790;BME280;7486;51.010;10.366;2023-05-08T00:32:34;98931.88;;;5.73;81.04
14790;BME280;7486;51.010;10.366;2023-05-08T00:35:20;98931.25;;;5.79;79.85
14790;BME280;7486;51.010;10.366;2023-05-08T00:38:05;98939.63;;;5.75;79.99
14790;BME280;7486;51.010;10.366;2023-05-08T00:40:51;98944.06;;;5.82;79.59
14790;BME280;7486;51.010;10.366;2023-05-08T00:43:36;98855.03;;;5.37;79.36
14790;BME280;7486;51.010;10.366;2023-05-08T00:46:22;98934.91;;;5.86;79.23
14790;BME280;7486;51.010;10.366;2023-05-08T00:49:09;98938.28;;;5.71;79.17
14790;BME280;7486;51.010;10.366;2023-05-08T00:51:55;98931.50;;;5.60;80.27
14790;BME280;7486;51.010;10.366;2023-05-08T00:54:41;98906.63;;;5.21;80.93
14790;BME280;7486;51.010;10.366;2023-05-08T00:57:28;98905.47;;;4.97;81.56
14790;BME280;7486;51.010;10.366;2023-05-08T01:00:17;98941.41;;;5.14;82.87
14790;BME280;7486;51.010;10.366;2023-05-08T01:03:03;98935.25;;;5.24;81.78
14790;BME280;7486;51.010;10.366;2023-05-08T01:05:49;98934.94;;;5.27;82.60
14790;BME280;7486;51.010;10.366;2023-05-08T01:08:35;98937.41;;;5.28;81.98
14790;BME280;7486;51.010;10.366;2023-05-08T01:11:25;98927.97;;;5.17;82.27
14790;BME280;7486;51.010;10.366;2023-05-08T01:21:02;98931.94;;;5.04;83.83
14790;BME280;7486;51.010;10.366;2023-05-08T01:34:26;98918.88;;;5.12;82.35
14790;BME280;7486;51.010;10.366;2023-05-08T01:37:18;98930.97;;;5.23;82.30
14790;BME280;7486;51.010;10.366;2023-05-08T01:40:11;98945.28;;;5.28;82.16
14790;BME280;7486;51.010;10.366;2023-05-08T01:46:05;98938.84;;;5.05;82.66
14790;BME280;7486;51.010;10.366;2023-05-08T01:49:18;98945.19;;;4.77;84.86
14790;BME280;7486;51.010;10.366;2023-05-08T01:52:33;98942.53;;;4.94;84.89
14790;BME280;7486;51.010;10.366;2023-05-08T01:55:24;98911.59;;;4.80;84.43
14790;BME280;7486;51.010;10.366;2023-05-08T01:58:10;98945.75;;;5.06;83.36
14790;BME280;7486;51.010;10.366;2023-05-08T02:00:58;98943.78;;;5.08;83.57
14790;BME280;7486;51.010;10.366;2023-05-08T02:03:47;98942.66;;;5.10;83.53
14790;BME280;7486;51.010;10.366;2023-05-08T02:06:33;98944.44;;;5.28;82.97
14790;BME280;7486;51.010;10.366;2023-05-08T02:09:22;98943.56;;;5.45;81.75
14790;BME280;7486;51.010;10.366;2023-05-08T02:12:09;98909.44;;;5.19;81.20
14790;BME280;7486;51.010;10.366;2023-05-08T02:14:56;98920.88;;;5.36;80.84
14790;BME280;7486;51.010;10.366;2023-05-08T02:17:45;98940.91;;;5.37;80.82
14790;BME280;7486;51.010;10.366;2023-05-08T02:20:32;98940.72;;;5.30;81.70
14790;BME280;7486;51.010;10.366;2023-05-08T02:23:19;98935.94;;;4.90;82.57
14790;BME280;7486;51.010;10.366;2023-05-08T02:26:07;98945.38;;;5.01;83.44
14790;BME280;7486;51.010;10.366;2023-05-08T02:28:54;98802.78;;;4.05;83.41
14790;BME280;7486;51.010;10.366;2023-05-08T02:31:40;98942.31;;;5.05;83.46
14790;BME280;7486;51.010;10.366;2023-05-08T02:34:27;98871.97;;;4.65;83.51
14790;BME280;7486;51.010;10.366;2023-05-08T02:37:15;98910.03;;;5.13;82.34
14790;BME280;7486;51.010;10.366;2023-05-08T02:40:02;98879.09;;;4.99;81.64
14790;BME280;7486;51.010;10.366;2023-05-08T02:42:50;98934.25;;;5.07;82.60
14790;BME280;7486;51.010;10.366;2023-05-08T02:45:43;98942.94;;;5.17;82.28
14790;BME280;7486;51.010;10.366;2023-05-08T02:48:41;98944.41;;;5.02;82.67
14790;BME280;7486;51.010;10.366;2023-05-08T02:51:53;98935.88;;;5.00;83.77
14790;BME280;7486;51.010;10.366;2023-05-08T02:54:41;98939.41;;;4.73;84.57
14790;BME280;7486;51.010;10.366;2023-05-08T03:00:39;98934.56;;;4.60;85.64
14790;BME280;7486;51.010;10.366;2023-05-08T03:03:33;98943.84;;;4.73;86.40
14790;BME280;7486;51.010;10.366;2023-05-08T03:06:21;98947.16;;;4.75;85.87
14790;BME280;7486;51.010;10.366;2023-05-08T03:09:16;98948.63;;;4.59;86.41
14790;BME280;7486;51.010;10.366;2023-05-08T03:12:06;98947.16;;;4.75;86.44
14790;BME280;7486;51.010;10.366;2023-05-08T03:15:03;98943.38;;;4.95;85.96
14790;BME280;7486;51.010;10.366;2023-05-08T03:17:56;98943.38;;;4.77;85.86
14790;BME280;7486;51.010;10.366;2023-05-08T03:20:45;98947.66;;;4.96;85.47
14790;BME280;7486;51.010;10.366;2023-05-08T03:23:32;98934.34;;;4.97;85.59
14790;BME280;7486;51.010;10.366;2023-05-08T03:26:20;98936.28;;;5.13;84.41
14790;BME280;7486;51.010;10.366;2023-05-08T03:29:07;98938.75;;;4.89;85.21
14790;BME280;7486;51.010;10.366;2023-05-08T03:31:53;98934.84;;;4.75;86.10
14790;BME280;7486;51.010;10.366;2023-05-08T03:34:39;98906.44;;;4.53;86.60
14790;BME280;7486;51.010;10.366;2023-05-08T03:37:26;98929.50;;;4.85;85.97
14790;BME280;7486;51.010;10.366;2023-05-08T03:40:12;98915.22;;;4.61;86.98
14790;BME280;7486;51.010;10.366;2023-05-08T03:42:59;98933.78;;;4.86;87.31
14790;BME280;7486;51.010;10.366;2023-05-08T03:45:45;98935.50;;;4.95;85.93
14790;BME280;7486;51.010;10.366;2023-05-08T03:48:32;98931.34;;;5.10;86.14
14790;BME280;7486;51.010;10.366;2023-05-08T03:51:20;98928.41;;;5.31;84.24
14790;BME280;7486;51.010;10.366;2023-05-08T03:54:06;98935.47;;;5.30;83.94
14790;BME280;7486;51.010;10.366;2023-05-08T03:56:53;98937.38;;;5.20;84.29
14790;BME280;7486;51.010;10.366;2023-05-08T04:00:05;98933.66;;;5.31;84.77
14790;BME280;7486;51.010;10.366;2023-05-08T04:06:24;98939.19;;;5.28;84.58
14790;BME280;7486;51.010;10.366;2023-05-08T04:12:51;98938.41;;;5.09;86.88
14790;BME280;7486;51.010;10.366;2023-05-08T04:15:51;98934.25;;;4.81;87.72
14790;BME280;7486;51.010;10.366;2023-05-08T04:18:44;98938.88;;;4.69;89.54
14790;BME280;7486;51.010;10.366;2023-05-08T04:21:33;98945.66;;;4.54;89.42
14790;BME280;7486;51.010;10.366;2023-05-08T04:24:20;98944.91;;;4.44;91.23
14790;BME280;7486;51.010;10.366;2023-05-08T04:27:08;98942.06;;;4.55;91.49
14790;BME280;7486;51.010;10.366;2023-05-08T04:29:54;98949.78;;;4.57;91.57
14790;BME280;7486;51.010;10.366;2023-05-08T04:32:40;98952.19;;;4.68;91.31
14790;BME280;7486;51.010;10.366;2023-05-08T04:35:30;98942.34;;;4.52;91.50
14790;BME280;7486;51.010;10.366;2023-05-08T04:38:17;98950.91;;;4.54;92.04
14790;BME280;7486;51.010;10.366;2023-05-08T04:41:03;98955.41;;;4.44;92.80
14790;BME280;7486;51.010;10.366;2023-05-08T04:43:49;98934.56;;;4.43;92.24
14790;BME280;7486;51.010;10.366;2023-05-08T04:46:35;98958.41;;;4.67;91.13
14790;BME280;7486;51.010;10.366;2023-05-08T04:49:20;98959.44;;;4.56;91.74
14790;BME280;7486;51.010;10.366;2023-05-08T04:52:07;98931.41;;;4.39;92.50
14790;BME280;7486;51.010;10.366;2023-05-08T04:54:53;98965.91;;;4.44;92.51
14790;BME280;7486;51.010;10.366;2023-05-08T04:57:39;98963.41;;;4.43;92.49
14790;BME280;7486;51.010;10.366;2023-05-08T05:00:24;98955.75;;;4.49;93.25
14790;BME280;7486;51.010;10.366;2023-05-08T05:03:10;98964.84;;;4.37;93.64
14790;BME280;7486;51.010;10.366;2023-05-08T05:06:00;98968.06;;;4.49;93.37
14790;BME280;7486;51.010;10.366;2023-05-08T05:08:45;98974.19;;;4.40;93.42
14790;BME280;7486;51.010;10.366;2023-05-08T05:11:31;98962.81;;;4.49;93.33
14790;BME280;7486;51.010;10.366;2023-05-08T05:14:16;98964.75;;;4.29;95.44
14790;BME280;7486;51.010;10.366;2023-05-08T05:17:02;98955.38;;;4.27;95.85
14790;BME280;7486;51.010;10.366;2023-05-08T05:19:48;98956.13;;;4.19;96.38
14790;BME280;7486;51.010;10.366;2023-05-08T05:22:36;98954.41;;;4.28;95.95
14790;BME280;7486;51.010;10.366;2023-05-08T05:25:21;98956.81;;;4.21;96.50
14790;BME280;7486;51.010;10.366;2023-05-08T05:28:07;98951.56;;;4.39;95.33
14790;BME280;7486;51.010;10.366;2023-05-08T05:30:52;98909.59;;;4.21;95.36
14790;BME280;7486;51.010;10.366;2023-05-08T05:33:37;98955.63;;;4.51;95.02
14790;BME280;7486;51.010;10.366;2023-05-08T05:36:23;98967.00;;;4.42;95.57
14790;BME280;7486;51.010;10.366;2023-05-08T05:39:08;98968.66;;;4.43;96.29
14790;BME280;7486;51.010;10.366;2023-05-08T05:41:53;98969.03;;;4.30;96.16
14790;BME280;7486;51.010;10.366;2023-05-08T05:44:38;98966.22;;;4.32;97.06
14790;BME280;7486;51.010;10.366;2023-05-08T05:47:24;98970.38;;;4.34;97.53
14790;BME280;7486;51.010;10.366;2023-05-08T05:50:09;98952.41;;;4.57;97.06
14790;BME280;7486;51.010;10.366;2023-05-08T05:52:55;98981.88;;;4.86;94.59
14790;BME280;7486;51.010;10.366;2023-05-08T05:55:41;98928.66;;;4.58;94.28
14790;BME280;7486;51.010;10.366;2023-05-08T05:58:26;98988.22;;;5.01;93.48
14790;BME280;7486;51.010;10.366;2023-05-08T06:01:13;98989.44;;;4.72;93.78
14790;BME280;7486;51.010;10.366;2023-05-08T06:03:58;98984.50;;;4.68;94.10
14790;BME280;7486;51.010;10.366;2023-05-08T06:06:44;98996.69;;;4.42;94.22
14790;BME280;7486;51.010;10.366;2023-05-08T06:09:29;98993.75;;;4.45;95.09
14790;BME280;7486;51.010;10.366;2023-05-08T06:12:15;98963.34;;;4.35;95.29
14790;BME280;7486;51.010;10.366;2023-05-08T06:15:00;98977.88;;;4.47;95.81
14790;BME280;7486;51.010;10.366;2023-05-08T06:17:45;98993.34;;;4.67;95.82
14790;BME280;7486;51.010;10.366;2023-05-08T06:20:31;98988.09;;;4.67;94.53
14790;BME280;7486;51.010;10.366;2023-05-08T06:23:17;98988.19;;;4.76;94.73
14790;BME280;7486;51.010;10.366;2023-05-08T06:26:03;98960.94;;;4.77;94.66
14790;BME280;7486;51.010;10.366;2023-05-08T06:28:48;98972.69;;;4.90;93.53
14790;BME280;7486;51.010;10.366;2023-05-08T06:31:33;98985.59;;;4.84;93.04
14790;BME280;7486;51.010;10.366;2023-05-08T06:34:19;98984.94;;;4.82;92.91
14790;BME280;7486;51.010;10.366;2023-05-08T06:37:04;98981.47;;;4.99;94.04
14790;BME280;7486;51.010;10.366;2023-05-08T06:39:49;98989.50;;;4.97;92.68
14790;BME280;7486;51.010;10.366;2023-05-08T06:42:54;98985.50;;;5.11;92.21
14790;BME280;7486;51.010;10.366;2023-05-08T06:45:42;98991.44;;;5.13;92.88
14790;BME280;7486;51.010;10.366;2023-05-08T06:48:28;98903.88;;;4.79;93.61
14790;BME280;7486;51.010;10.366;2023-05-08T06:51:13;98989.75;;;5.47;91.89
14790;BME280;7486;51.010;10.366;2023-05-08T06:53:59;98993.09;;;5.57;89.18
14790;BME280;7486;51.010;10.366;2023-05-08T06:56:44;99004.72;;;5.29;90.52
14790;BME280;7486;51.010;10.366;2023-05-08T06:59:29;99004.56;;;5.31;89.31
14790;BME280;7486;51.010;10.366;2023-05-08T07:02:15;98952.94;;;5.04;90.37
14790;BME280;7486;51.010;10.366;2023-05-08T07:05:00;99000.72;;;5.43;90.80
14790;BME280;7486;51.010;10.366;2023-05-08T07:07:46;98995.50;;;5.51;89.09
14790;BME280;7486;51.010;10.366;2023-05-08T07:10:31;98943.47;;;5.11;89.97
14790;BME280;7486;51.010;10.366;2023-05-08T07:13:17;98994.94;;;5.39;90.33
14790;BME280;7486;51.010;10.366;2023-05-08T07:16:07;98993.69;;;5.51;89.06
14790;BME280;7486;51.010;10.366;2023-05-08T07:18:53;98944.06;;;5.40;88.90
14790;BME280;7486;51.010;10.366;2023-05-08T07:21:39;98993.69;;;5.51;89.28
14790;BME280;7486;51.010;10.366;2023-05-08T07:24:24;98992.06;;;5.50;89.76
14790;BME280;7486;51.010;10.366;2023-05-08T07:27:09;98993.41;;;5.54;90.09
14790;BME280;7486;51.010;10.366;2023-05-08T07:29:54;98996.78;;;5.73;89.54
14790;BME280;7486;51.010;10.366;2023-05-08T07:32:40;99004.72;;;5.81;89.44
14790;BME280;7486;51.010;10.366;2023-05-08T07:35:25;99002.13;;;5.89;89.16
14790;BME280;7486;51.010;10.366;2023-05-08T07:38:11;99007.69;;;5.86;89.25
14790;BME280;7486;51.010;10.366;2023-05-08T07:40:56;98998.22;;;6.01;90.22
14790;BME280;7486;51.010;10.366;2023-05-08T07:43:42;98995.41;;;6.36;87.90
14790;BME280;7486;51.010;10.366;2023-05-08T07:46:27;98965.38;;;6.05;87.43
14790;BME280;7486;51.010;10.366;2023-05-08T07:49:12;98926.22;;;5.94;87.72
14790;BME280;7486;51.010;10.366;2023-05-08T07:51:58;99000.72;;;6.68;86.25
14790;BME280;7486;51.010;10.366;2023-05-08T07:54:43;99005.09;;;6.94;84.06
14790;BME280;7486;51.010;10.366;2023-05-08T07:57:38;99006.06;;;7.01;85.68
14790;BME280;7486;51.010;10.366;2023-05-08T08:00:24;98994.22;;;7.13;86.72
14790;BME280;7486;51.010;10.366;2023-05-08T08:03:10;98998.97;;;7.50;82.07
14790;BME280;7486;51.010;10.366;2023-05-08T08:05:55;98998.47;;;7.54;82.37
14790;BME280;7486;51.010;10.366;2023-05-08T08:08:40;99001.56;;;7.58;82.13
14790;BME280;7486;51.010;10.366;2023-05-08T08:11:26;98999.09;;;7.64;84.67
14790;BME280;7486;51.010;10.366;2023-05-08T08:14:11;98995.41;;;7.90;79.51
14790;BME280;7486;51.010;10.366;2023-05-08T08:16:56;98993.69;;;8.13;80.23
14790;BME280;7486;51.010;10.366;2023-05-08T08:19:42;98979.56;;;8.37;80.22
14790;BME280;7486;51.010;10.366;2023-05-08T08:22:27;98971.06;;;8.49;78.94
14790;BME280;7486;51.010;10.366;2023-05-08T08:25:13;98987.19;;;8.62;79.26
14790;BME280;7486;51.010;10.366;2023-05-08T08:27:59;98985.84;;;8.89;78.76
14790;BME280;7486;51.010;10.366;2023-05-08T08:30:44;98985.81;;;9.35;76.88
14790;BME280;7486;51.010;10.366;2023-05-08T08:33:29;98987.75;;;9.41;77.82
14790;BME280;7486;51.010;10.366;2023-05-08T08:36:15;98967.16;;;9.65;73.36
14790;BME280;7486;51.010;10.366;2023-05-08T08:39:00;98992.16;;;9.78;73.29
14790;BME280;7486;51.010;10.366;2023-05-08T08:41:45;98984.28;;;9.69;73.37
14790;BME280;7486;51.010;10.366;2023-05-08T08:44:31;98983.31;;;9.70;74.92
14790;BME280;7486;51.010;10.366;2023-05-08T08:47:18;98922.75;;;9.61;72.58
14790;BME280;7486;51.010;10.366;2023-05-08T08:50:04;98982.81;;;10.11;76.41
14790;BME280;7486;51.010;10.366;2023-05-08T08:52:59;98974.56;;;10.35;71.70
14790;BME280;7486;51.010;10.366;2023-05-08T08:55:45;98967.53;;;10.42;71.09
14790;BME280;7486;51.010;10.366;2023-05-08T08:58:41;98972.28;;;10.47;72.57
14790;BME280;7486;51.010;10.366;2023-05-08T09:01:29;98910.13;;;10.28;72.19
14790;BME280;7486;51.010;10.366;2023-05-08T09:04:17;98973.25;;;10.60;70.66
14790;BME280;7486;51.010;10.366;2023-05-08T09:07:03;98969.94;;;10.94;72.96
14790;BME280;7486;51.010;10.366;2023-05-08T09:09:49;98970.47;;;11.11;72.63
14790;BME280;7486;51.010;10.366;2023-05-08T09:12:34;98968.84;;;11.10;69.58
14790;BME280;7486;51.010;10.366;2023-05-08T09:15:20;98966.81;;;11.12;71.53
14790;BME280;7486;51.010;10.366;2023-05-08T09:18:05;98972.53;;;11.37;71.60
14790;BME280;7486;51.010;10.366;2023-05-08T09:20:51;98971.31;;;11.60;66.96
14790;BME280;7486;51.010;10.366;2023-05-08T09:23:58;98964.03;;;11.76;69.62
14790;BME280;7486;51.010;10.366;2023-05-08T09:26:44;98952.81;;;11.73;67.31
14790;BME280;7486;51.010;10.366;2023-05-08T09:29:29;98969.59;;;11.81;70.87
14790;BME280;7486;51.010;10.366;2023-05-08T09:32:17;98960.50;;;12.03;69.46
14790;BME280;7486;51.010;10.366;2023-05-08T09:35:03;98966.66;;;12.10;68.14
14790;BME280;7486;51.010;10.366;2023-05-08T09:37:49;98960.81;;;12.28;68.53
14790;BME280;7486;51.010;10.366;2023-05-08T09:40:34;98965.28;;;12.20;66.74
14790;BME280;7486;51.010;10.366;2023-05-08T09:43:19;98969.63;;;11.87;66.97
14790;BME280;7486;51.010;10.366;2023-05-08T09:46:21;98970.44;;;11.88;70.42
14790;BME280;7486;51.010;10.366;2023-05-08T09:49:15;98971.97;;;12.10;66.35
14790;BME280;7486;51.010;10.366;2023-05-08T09:52:01;98979.22;;;12.29;66.29
14790;BME280;7486;51.010;10.366;2023-05-08T09:54:48;98956.16;;;12.36;66.78
14790;BME280;7486;51.010;10.366;2023-05-08T09:57:57;98968.00;;;12.40;67.34
14790;BME280;7486;51.010;10.366;2023-05-08T10:00:43;98966.06;;;12.62;66.00
14790;BME280;7486;51.010;10.366;2023-05-08T10:03:48;98972.06;;;12.84;65.82
14790;BME280;7486;51.010;10.366;2023-05-08T10:06:33;98962.03;;;12.86;64.11
14790;BME280;7486;51.010;10.366;2023-05-08T10:09:18;98966.97;;;13.15;65.72
14790;BME280;7486;51.010;10.366;2023-05-08T10:12:04;98944.66;;;12.96;62.05
14790;BME280;7486;51.010;10.366;2023-05-08T10:14:50;98954.25;;;13.43;64.21
14790;BME280;7486;51.010;10.366;2023-05-08T10:17:59;98964.06;;;13.43;62.11
14790;BME280;7486;51.010;10.366;2023-05-08T10:20:47;98954.06;;;13.45;62.98
14790;BME280;7486;51.010;10.366;2023-05-08T10:23:35;98965.88;;;13.82;62.08
14790;BME280;7486;51.010;10.366;2023-05-08T10:26:26;98973.34;;;14.24;64.09
14790;BME280;7486;51.010;10.366;2023-05-08T10:29:20;98964.47;;;14.37;62.55
14790;BME280;7486;51.010;10.366;2023-05-08T10:32:09;98963.56;;;14.56;61.89
14790;BME280;7486;51.010;10.366;2023-05-08T10:34:58;98967.94;;;14.82;61.58
14790;BME280;7486;51.010;10.366;2023-05-08T10:37:44;98939.38;;;14.89;59.43
14790;BME280;7486;51.010;10.366;2023-05-08T10:40:30;98964.28;;;15.32;59.20
14790;BME280;7486;51.010;10.366;2023-05-08T10:43:16;98956.03;;;15.40;57.16
14790;BME280;7486;51.010;10.366;2023-05-08T10:46:09;98958.75;;;15.34;60.39
14790;BME280;7486;51.010;10.366;2023-05-08T10:49:05;98950.50;;;15.35;58.82
14790;BME280;7486;51.010;10.366;2023-05-08T10:52:23;98943.81;;;15.51;59.07
14790;BME280;7486;51.010;10.366;2023-05-08T10:55:26;98950.44;;;15.17;55.74
14790;BME280;7486;51.010;10.366;2023-05-08T10:58:14;98942.72;;;15.09;57.68
14790;BME280;7486;51.010;10.366;2023-05-08T11:01:13;98944.38;;;14.79;57.16
14790;BME280;7486;51.010;10.366;2023-05-08T11:03:59;98936.34;;;14.47;58.26
14790;BME280;7486;51.010;10.366;2023-05-08T11:06:46;98936.03;;;14.24;59.56
14790;BME280;7486;51.010;10.366;2023-05-08T11:12:27;98925.38;;;14.24;58.72
14790;BME280;7486;51.010;10.366;2023-05-08T11:15:13;98936.13;;;14.49;56.74
14790;BME280;7486;51.010;10.366;2023-05-08T11:18:03;98926.91;;;14.51;55.63
14790;BME280;7486;51.010;10.366;2023-05-08T11:23:55;98933.84;;;14.84;55.25
14790;BME280;7486;51.010;10.366;2023-05-08T11:26:41;98934.81;;;14.96;57.54
14790;BME280;7486;51.010;10.366;2023-05-08T11:29:32;98927.06;;;14.88;56.43
14790;BME280;7486;51.010;10.366;2023-05-08T11:32:17;98924.72;;;14.98;57.10
14790;BME280;7486;51.010;10.366;2023-05-08T11:35:03;98910.13;;;15.25;56.57
14790;BME280;7486;51.010;10.366;2023-05-08T11:41:22;98903.59;;;15.21;56.55
14790;BME280;7486;51.010;10.366;2023-05-08T11:46:54;98908.66;;;14.80;56.55
14790;BME280;7486;51.010;10.366;2023-05-08T11:49:40;98916.06;;;14.78;58.01
14790;BME280;7486;51.010;10.366;2023-05-08T11:52:26;98915.97;;;14.59;58.72
14790;BME280;7486;51.010;10.366;2023-05-08T11:55:13;98897.63;;;15.01;59.30
14790;BME280;7486;51.010;10.366;2023-05-08T11:57:58;98909.59;;;14.92;58.63
14790;BME280;7486;51.010;10.366;2023-05-08T12:00:44;98913.91;;;14.93;57.81
14790;BME280;7486;51.010;10.366;2023-05-08T12:03:29;98905.00;;;15.30;59.36
14790;BME280;7486;51.010;10.366;2023-05-08T12:06:17;98914.94;;;14.92;57.39
14790;BME280;7486;51.010;10.366;2023-05-08T12:09:09;98906.75;;;14.87;57.70
14790;BME280;7486;51.010;10.366;2023-05-08T12:11:56;98907.72;;;14.67;59.75
14790;BME280;7486;51.010;10.366;2023-05-08T12:14:41;98912.00;;;15.00;58.56
14790;BME280;7486;51.010;10.366;2023-05-08T12:17:26;98907.91;;;14.66;58.20
14790;BME280;7486;51.010;10.366;2023-05-08T12:20:17;98911.66;;;14.20;59.16
14790;BME280;7486;51.010;10.366;2023-05-08T12:23:03;98902.22;;;14.18;59.57
14790;BME280;7486;51.010;10.366;2023-05-08T12:25:51;98903.94;;;14.50;59.36
14790;BME280;7486;51.010;10.366;2023-05-08T12:28:39;98903.06;;;14.56;59.08
14790;BME280;7486;51.010;10.366;2023-05-08T12:31:24;98901.47;;;14.55;58.10
14790;BME280;7486;51.010;10.366;2023-05-08T12:34:10;98907.63;;;14.49;57.48
14790;BME280;7486;51.010;10.366;2023-05-08T12:37:03;98854.19;;;14.00;57.00
14790;BME280;7486;51.010;10.366;2023-05-08T12:39:48;98894.13;;;14.44;59.91
14790;BME280;7486;51.010;10.366;2023-05-08T12:43:01;98896.47;;;14.59;60.48
14790;BME280;7486;51.010;10.366;2023-05-08T12:45:49;98906.59;;;14.50;59.07
14790;BME280;7486;51.010;10.366;2023-05-08T12:48:35;98891.47;;;14.44;58.01
14790;BME280;7486;51.010;10.366;2023-05-08T12:51:29;98898.16;;;14.53;57.44
14790;BME280;7486;51.010;10.366;2023-05-08T12:54:14;98833.06;;;14.36;60.17
14790;BME280;7486;51.010;10.366;2023-05-08T12:57:09;98886.09;;;14.82;58.40
14790;BME280;7486;51.010;10.366;2023-05-08T13:00:03;98888.94;;;14.81;57.01
14790;BME280;7486;51.010;10.366;2023-05-08T13:02:53;98716.69;;;13.67;58.35
14790;BME280;7486;51.010;10.366;2023-05-08T13:05:43;98867.47;;;14.44;56.58
14790;BME280;7486;51.010;10.366;2023-05-08T13:08:34;98880.66;;;14.64;57.93
14790;BME280;7486;51.010;10.366;2023-05-08T13:11:32;98873.44;;;14.71;57.63
14790;BME280;7486;51.010;10.366;2023-05-08T13:14:17;98882.56;;;14.57;58.06
14790;BME280;7486;51.010;10.366;2023-05-08T13:17:02;98828.09;;;14.46;58.30
14790;BME280;7486;51.010;10.366;2023-05-08T13:19:48;98870.06;;;14.57;57.56
14790;BME280;7486;51.010;10.366;2023-05-08T13:22:33;98870.38;;;14.67;57.61
14790;BME280;7486;51.010;10.366;2023-05-08T13:25:18;98862.72;;;14.78;55.15
14790;BME280;7486;51.010;10.366;2023-05-08T13:28:04;98862.59;;;14.91;57.39
14790;BME280;7486;51.010;10.366;2023-05-08T13:30:50;98856.59;;;15.20;56.96
14790;BME280;7486;51.010;10.366;2023-05-08T13:33:36;98857.78;;;15.06;55.65
14790;BME280;7486;51.010;10.366;2023-05-08T13:36:22;98856.75;;;14.82;57.96
14790;BME280;7486;51.010;10.366;2023-05-08T13:39:07;98860.97;;;14.65;56.92
14790;BME280;7486;51.010;10.366;2023-05-08T13:41:52;98865.06;;;14.67;58.89
14790;BME280;7486;51.010;10.366;2023-05-08T13:44:37;98854.66;;;14.59;58.43
14790;BME280;7486;51.010;10.366;2023-05-08T13:47:23;98855.31;;;14.80;57.59
14790;BME280;7486;51.010;10.366;2023-05-08T13:50:09;98854.47;;;14.86;57.14
14790;BME280;7486;51.010;10.366;2023-05-08T13:52:55;98852.44;;;14.81;57.12
14790;BME280;7486;51.010;10.366;2023-05-08T13:55:40;98851.06;;;14.97;57.01
14790;BME280;7486;51.010;10.366;2023-05-08T13:58:25;98845.31;;;15.18;58.78
14790;BME280;7486;51.010;10.366;2023-05-08T14:01:11;98849.16;;;15.04;57.49
14790;BME280;7486;51.010;10.366;2023-05-08T14:04:11;98817.00;;;14.99;56.59
14790;BME280;7486;51.010;10.366;2023-05-08T14:06:57;98829.63;;;15.10;57.56
14790;BME280;7486;51.010;10.366;2023-05-08T14:09:42;98839.97;;;15.00;56.50
14790;BME280;7486;51.010;10.366;2023-05-08T14:12:27;98836.59;;;14.86;57.79
14790;BME280;7486;51.010;10.366;2023-05-08T14:15:13;98836.94;;;14.96;56.82
14790;BME280;7486;51.010;10.366;2023-05-08T14:17:58;98833.69;;;15.12;58.79
14790;BME280;7486;51.010;10.366;2023-05-08T14:20:44;98844.19;;;15.50;54.52
14790;BME280;7486;51.010;10.366;2023-05-08T14:23:35;98840.63;;;15.38;54.41
14790;BME280;7486;51.010;10.366;2023-05-08T14:26:20;98808.69;;;15.07;55.13
14790;BME280;7486;51.010;10.366;2023-05-08T14:29:06;98838.72;;;15.27;55.14
14790;BME280;7486;51.010;10.366;2023-05-08T14:31:51;98839.34;;;15.22;55.28
14790;BME280;7486;51.010;10.366;2023-05-08T14:34:36;98836.78;;;15.34;56.06
14790;BME280;7486;51.010;10.366;2023-05-08T14:37:22;98820.84;;;15.21;54.02
14790;BME280;7486;51.010;10.366;2023-05-08T14:40:08;98846.13;;;15.43;56.67
14790;BME280;7486;51.010;10.366;2023-05-08T14:42:53;98828.09;;;15.39;55.51
14790;BME280;7486;51.010;10.366;2023-05-08T14:45:38;98837.81;;;15.33;54.92
14790;BME280;7486;51.010;10.366;2023-05-08T14:48:23;98836.78;;;15.34;55.27
14790;BME280;7486;51.010;10.366;2023-05-08T14:51:09;98810.50;;;15.13;55.81
14790;BME280;7486;51.010;10.366;2023-05-08T14:53:55;98778.44;;;14.95;54.72
14790;BME280;7486;51.010;10.366;2023-05-08T14:56:41;98832.88;;;15.12;54.24
14790;BME280;7486;51.010;10.366;2023-05-08T14:59:32;98831.38;;;15.41;54.76
14790;BME280;7486;51.010;10.366;2023-05-08T15:02:17;98829.94;;;15.38;54.13
14790;BME280;7486;51.010;10.366;2023-05-08T15:05:02;98766.75;;;15.14;54.40
14790;BME280;7486;51.010;10.366;2023-05-08T15:07:55;98827.78;;;15.29;53.21
14790;BME280;7486;51.010;10.366;2023-05-08T15:10:40;98833.75;;;15.24;54.78
14790;BME280;7486;51.010;10.366;2023-05-08T15:13:26;98805.72;;;14.97;53.74
14790;BME280;7486;51.010;10.366;2023-05-08T15:16:12;98821.88;;;15.02;55.61
14790;BME280;7486;51.010;10.366;2023-05-08T15:18:57;98812.47;;;14.99;56.20
14790;BME280;7486;51.010;10.366;2023-05-08T15:21:43;98786.84;;;14.98;54.28
14790;BME280;7486;51.010;10.366;2023-05-08T15:24:28;98800.16;;;14.98;53.40
14790;BME280;7486;51.010;10.366;2023-05-08T15:27:14;98820.53;;;14.93;54.14
14790;BME280;7486;51.010;10.366;2023-05-08T15:29:59;98821.34;;;14.93;54.76
14790;BME280;7486;51.010;10.366;2023-05-08T15:32:45;98770.72;;;14.87;53.91
14790;BME280;7486;51.010;10.366;2023-05-08T15:35:30;98815.13;;;15.42;54.63
14790;BME280;7486;51.010;10.366;2023-05-08T15:38:16;98814.47;;;15.65;52.67